createdAt,value
2019-02-24T00:00:16.306Z,98921.83
2019-02-24T00:03:12.896Z,98918.97
2019-02-24T00:06:08.394Z,98916.94
2019-02-24T00:09:05.858Z,98924.64
2019-02-24T00:12:01.386Z,98909.34
2019-02-24T00:14:58.146Z,98908.34
2019-02-24T00:17:55.608Z,98912.44
2019-02-24T00:20:52.120Z,98907.59
2019-02-24T00:23:48.689Z,98910.97
2019-02-24T00:26:45.192Z,98906.73
2019-02-24T00:29:40.706Z,98904.25
2019-02-24T00:32:37.221Z,98903.73
2019-02-24T00:35:32.479Z,98900.75
2019-02-24T00:38:30.763Z,98900.75
2019-02-24T00:41:26.501Z,98894.77
2019-02-24T00:44:23.028Z,98896.37
2019-02-24T00:47:18.738Z,98903.95
2019-02-24T00:50:15.448Z,98902.92
2019-02-24T00:53:10.961Z,98905.16
2019-02-24T00:56:07.451Z,98904.37
2019-02-24T00:59:03.633Z,98907.20
2019-02-24T01:02:00.013Z,98910.80
2019-02-24T01:04:55.390Z,98909.33
2019-02-24T01:07:52.197Z,98910.83
2019-02-24T01:10:47.633Z,98909.58
2019-02-24T01:13:44.405Z,98912.56
2019-02-24T01:16:39.960Z,98907.33
2019-02-24T01:19:37.761Z,98908.06
2019-02-24T01:22:32.779Z,98914.00
2019-02-24T01:25:29.825Z,98912.98
2019-02-24T01:28:27.301Z,98909.02
2019-02-24T01:31:24.045Z,98905.05
2019-02-24T01:34:19.719Z,98906.53
2019-02-24T01:37:16.234Z,98903.27
2019-02-24T01:40:12.952Z,98901.05
2019-02-24T01:43:09.407Z,98891.32
2019-02-24T01:46:05.110Z,98889.06
2019-02-24T01:49:03.156Z,98889.28
2019-02-24T01:51:57.949Z,98883.50
2019-02-24T01:54:54.461Z,98879.24
2019-02-24T01:57:49.927Z,98868.80
2019-02-24T02:00:46.435Z,98864.61
2019-02-24T02:03:43.080Z,98862.59
2019-02-24T02:06:38.809Z,98859.06
2019-02-24T02:09:35.348Z,98861.78
2019-02-24T02:12:31.170Z,98847.06
2019-02-24T02:15:27.648Z,98860.26
2019-02-24T02:18:23.102Z,98852.50
2019-02-24T02:21:20.807Z,98856.34
2019-02-24T02:24:16.211Z,98845.80
2019-02-24T02:27:13.754Z,98843.57
2019-02-24T02:30:10.241Z,98846.81
2019-02-24T02:33:06.838Z,98844.33
2019-02-24T02:36:02.311Z,98850.64
2019-02-24T02:38:58.779Z,98847.94
2019-02-24T02:41:54.272Z,98857.33
2019-02-24T02:44:50.854Z,98856.19
2019-02-24T02:47:46.362Z,98856.05
2019-02-24T02:50:43.953Z,98857.82
2019-02-24T02:53:39.398Z,98864.98
2019-02-24T02:56:36.165Z,98862.23
2019-02-24T02:59:31.477Z,98862.23
2019-02-24T03:02:27.882Z,98867.95
2019-02-24T03:05:23.590Z,98862.98
2019-02-24T03:08:22.532Z,98860.11
2019-02-24T03:11:17.944Z,98855.79
2019-02-24T03:14:15.477Z,98858.54
2019-02-24T03:17:10.816Z,98849.84
2019-02-24T03:20:08.748Z,98859.09
2019-02-24T03:23:03.559Z,98852.36
2019-02-24T03:25:59.632Z,98856.34
2019-02-24T03:29:03.845Z,98852.36
2019-02-24T03:31:52.637Z,98851.18
2019-02-24T03:34:48.321Z,98842.31
2019-02-24T03:37:44.820Z,98854.97
2019-02-24T03:40:40.901Z,98840.84
2019-02-24T03:43:36.829Z,98831.39
2019-02-24T03:46:31.774Z,98840.33
2019-02-24T03:49:28.316Z,98841.56
2019-02-24T03:52:24.031Z,98842.55
2019-02-24T03:55:20.464Z,98839.41
2019-02-24T03:58:15.944Z,98837.80
2019-02-24T04:01:13.476Z,98834.83
2019-02-24T04:04:08.764Z,98837.28
2019-02-24T04:07:04.898Z,98841.92
2019-02-24T04:10:00.005Z,98842.41
2019-02-24T04:12:56.815Z,98841.42
2019-02-24T04:15:52.541Z,98848.63
2019-02-24T04:18:49.064Z,98841.46
2019-02-24T04:21:46.364Z,98843.66
2019-02-24T04:24:43.208Z,98838.42
2019-02-24T04:27:38.987Z,98837.22
2019-02-24T04:30:37.533Z,98838.98
2019-02-24T04:33:32.249Z,98848.17
2019-02-24T04:36:28.653Z,98849.50
2019-02-24T04:39:24.157Z,98846.89
2019-02-24T04:42:21.664Z,98850.25
2019-02-24T04:45:17.173Z,98847.11
2019-02-24T04:48:13.878Z,98850.58
2019-02-24T04:51:10.428Z,98856.43
2019-02-24T04:54:07.000Z,98858.30
2019-02-24T04:57:02.369Z,98855.09
2019-02-24T04:59:58.918Z,98857.02
2019-02-24T05:02:55.535Z,98863.00
2019-02-24T05:05:52.211Z,98859.23
2019-02-24T05:08:48.771Z,98867.14
2019-02-24T05:11:44.375Z,98863.63
2019-02-24T05:14:41.750Z,98863.37
2019-02-24T05:17:38.703Z,98865.33
2019-02-24T05:20:34.701Z,98867.14
2019-02-24T05:23:30.625Z,98858.93
2019-02-24T05:26:27.149Z,98860.40
2019-02-24T05:29:23.943Z,98855.30
2019-02-24T05:32:22.557Z,98864.66
2019-02-24T05:35:19.265Z,98855.44
2019-02-24T05:38:15.553Z,98860.88
2019-02-24T05:41:10.706Z,98849.67
2019-02-24T05:44:07.211Z,98845.15
2019-02-24T05:47:02.748Z,98845.15
2019-02-24T05:49:59.330Z,98849.41
2019-02-24T05:52:56.044Z,98847.72
2019-02-24T05:55:52.519Z,98858.40
2019-02-24T05:58:48.179Z,98853.13
2019-02-24T06:01:44.642Z,98856.37
2019-02-24T06:04:40.341Z,98864.83
2019-02-24T06:07:36.008Z,98868.78
2019-02-24T06:10:31.011Z,98875.48
2019-02-24T06:13:27.667Z,98882.94
2019-02-24T06:16:23.430Z,98891.89
2019-02-24T06:19:20.166Z,98890.39
2019-02-24T06:22:17.679Z,98888.34
2019-02-24T06:25:14.436Z,98885.23
2019-02-24T06:28:09.953Z,98889.22
2019-02-24T06:31:06.241Z,98889.14
2019-02-24T06:34:02.224Z,98888.42
2019-02-24T06:36:58.725Z,98888.92
2019-02-24T06:39:54.185Z,98889.94
2019-02-24T06:42:50.687Z,98906.13
2019-02-24T06:45:46.156Z,98912.86
2019-02-24T06:48:42.574Z,98914.59
2019-02-24T06:51:38.264Z,98920.81
2019-02-24T06:54:34.418Z,98936.28
2019-02-24T06:57:32.037Z,98942.27
2019-02-24T07:00:27.458Z,98951.28
2019-02-24T07:03:24.964Z,98956.30
2019-02-24T07:06:20.680Z,98954.38
2019-02-24T07:09:16.951Z,98950.69
2019-02-24T07:12:12.453Z,98958.58
2019-02-24T07:15:08.829Z,98958.27
2019-02-24T07:18:04.349Z,98957.84
2019-02-24T07:21:00.892Z,98954.16
2019-02-24T07:23:59.832Z,98948.99
2019-02-24T07:27:01.347Z,98949.52
2019-02-24T07:29:58.131Z,98947.39
2019-02-24T07:32:54.810Z,98948.80
2019-02-24T07:35:52.606Z,98954.91
2019-02-24T07:38:48.178Z,98952.48
2019-02-24T07:41:44.839Z,98946.78
2019-02-24T07:44:40.770Z,98944.74
2019-02-24T07:47:38.337Z,98933.82
2019-02-24T07:50:33.896Z,98926.30
2019-02-24T07:53:31.613Z,98921.11
2019-02-24T07:56:27.131Z,98911.53
2019-02-24T07:59:23.873Z,98901.63
2019-02-24T08:02:19.363Z,98896.80
2019-02-24T08:05:16.008Z,98880.63
2019-02-24T08:08:16.438Z,98863.23
2019-02-24T08:11:07.648Z,98853.27
2019-02-24T08:14:04.093Z,98853.28
2019-02-24T08:17:00.882Z,98853.80
2019-02-24T08:19:56.325Z,98865.16
2019-02-24T08:22:52.796Z,98866.89
2019-02-24T08:25:50.560Z,98859.05
2019-02-24T08:28:46.221Z,98863.05
2019-02-24T08:31:42.293Z,98869.77
2019-02-24T08:34:41.519Z,98872.25
2019-02-24T08:37:38.152Z,98876.02
2019-02-24T08:40:36.678Z,98867.75
2019-02-24T08:43:32.502Z,98842.55
2019-02-24T08:46:28.387Z,98844.02
2019-02-24T08:49:24.211Z,98858.73
2019-02-24T08:52:20.902Z,98877.42
2019-02-24T08:55:17.588Z,98880.75
2019-02-24T08:58:13.613Z,98880.59
2019-02-24T09:01:09.181Z,98899.77
2019-02-24T09:04:05.927Z,98897.00
2019-02-24T09:07:01.437Z,98904.44
2019-02-24T09:09:58.338Z,98903.27
2019-02-24T09:12:54.981Z,98901.14
2019-02-24T09:15:53.293Z,98908.80
2019-02-24T09:18:48.282Z,98910.24
2019-02-24T09:21:43.931Z,98884.20
2019-02-24T09:24:41.430Z,98876.14
2019-02-24T09:27:37.157Z,98909.56
2019-02-24T09:30:34.830Z,98915.26
2019-02-24T09:33:30.602Z,98924.39
2019-02-24T09:36:28.421Z,98923.42
2019-02-24T09:39:24.938Z,98913.96
2019-02-24T09:42:18.428Z,98903.54
2019-02-24T09:45:14.106Z,98892.68
2019-02-24T09:48:10.645Z,98891.61
2019-02-24T09:51:06.250Z,98910.89
2019-02-24T09:54:02.968Z,98912.63
2019-02-24T09:57:00.715Z,98895.98
2019-02-24T09:59:56.243Z,98894.22
2019-02-24T10:02:52.796Z,98898.34
2019-02-24T10:05:49.571Z,98905.77
2019-02-24T10:08:46.540Z,98901.20
2019-02-24T10:11:42.954Z,98891.94
2019-02-24T10:14:39.519Z,98884.36
2019-02-24T10:17:35.327Z,98874.94
2019-02-24T10:20:31.831Z,98861.94
2019-02-24T10:23:27.324Z,98864.08
2019-02-24T10:26:25.764Z,98869.98
2019-02-24T10:29:21.098Z,98873.66
2019-02-24T10:32:17.834Z,98876.30
2019-02-24T10:35:12.806Z,98883.05
2019-02-24T10:38:09.329Z,98867.82
2019-02-24T10:41:07.165Z,98887.63
2019-02-24T10:44:02.983Z,98888.51
2019-02-24T10:46:59.757Z,98886.88
2019-02-24T10:49:56.201Z,98891.13
2019-02-24T10:52:52.991Z,98887.08
2019-02-24T10:55:48.724Z,98893.65
2019-02-24T10:58:44.901Z,98878.16
2019-02-24T11:01:41.646Z,98885.31
2019-02-24T11:04:37.216Z,98886.37
2019-02-24T11:07:35.000Z,98895.84
2019-02-24T11:10:30.757Z,98894.09
2019-02-24T11:13:27.465Z,98897.48
2019-02-24T11:16:23.101Z,98888.75
2019-02-24T11:19:18.187Z,98885.80
2019-02-24T11:22:14.122Z,98885.80
2019-02-24T11:25:09.654Z,98893.70
2019-02-24T11:28:09.729Z,98898.82
2019-02-24T11:31:05.278Z,98897.03
2019-02-24T11:34:01.860Z,98900.62
2019-02-24T11:36:58.472Z,98901.93
2019-02-24T11:39:55.221Z,98900.74
2019-02-24T11:42:52.971Z,98891.80
2019-02-24T11:45:48.734Z,98890.84
2019-02-24T11:48:44.496Z,98891.13
2019-02-24T11:51:40.096Z,98885.13
2019-02-24T11:54:36.617Z,98887.19
2019-02-24T11:57:33.231Z,98885.80
2019-02-24T12:00:29.781Z,98892.77
2019-02-24T12:03:26.574Z,98892.47
2019-02-24T12:06:22.254Z,98895.53
2019-02-24T12:09:17.890Z,98880.63
2019-02-24T12:12:13.382Z,98880.33
2019-02-24T12:15:10.053Z,98874.10
2019-02-24T12:18:06.562Z,98878.88
2019-02-24T12:21:03.150Z,98867.40
2019-02-24T12:23:58.730Z,98864.87
2019-02-24T12:26:55.457Z,98866.80
2019-02-24T12:29:52.301Z,98862.95
2019-02-24T12:32:47.975Z,98851.39
2019-02-24T12:35:44.619Z,98846.69
2019-02-24T12:38:41.423Z,98842.71
2019-02-24T12:41:37.992Z,98839.07
2019-02-24T12:44:34.585Z,98854.99
2019-02-24T12:47:33.415Z,98858.11
2019-02-24T12:50:28.881Z,98863.62
2019-02-24T12:53:24.668Z,98865.07
2019-02-24T12:56:21.326Z,98875.16
2019-02-24T12:59:18.043Z,98863.62
2019-02-24T13:02:14.132Z,98865.84
2019-02-24T13:05:09.785Z,98856.77
2019-02-24T13:08:07.321Z,98857.59
2019-02-24T13:11:02.823Z,98857.45
2019-02-24T13:13:59.528Z,98858.13
2019-02-24T13:16:56.316Z,98859.31
2019-02-24T13:19:52.027Z,98864.52
2019-02-24T13:22:49.376Z,98859.15
2019-02-24T13:25:44.289Z,98859.15
2019-02-24T13:28:50.182Z,98856.79
2019-02-24T13:31:38.720Z,98846.70
2019-02-24T13:34:35.464Z,98848.43
2019-02-24T13:37:31.290Z,98848.69
2019-02-24T13:40:27.651Z,98851.56
2019-02-24T13:43:23.154Z,98846.90
2019-02-24T13:46:19.446Z,98839.96
2019-02-24T13:49:17.675Z,98827.66
2019-02-24T13:52:12.394Z,98824.65
2019-02-24T13:55:08.993Z,98826.30
2019-02-24T13:58:04.762Z,98828.86
2019-02-24T14:01:01.303Z,98835.32
2019-02-24T14:03:56.824Z,98832.88
2019-02-24T14:06:53.411Z,98837.08
2019-02-24T14:09:49.703Z,98843.11
2019-02-24T14:12:45.754Z,98841.70
2019-02-24T14:15:42.589Z,98827.02
2019-02-24T14:18:44.054Z,98827.05
2019-02-24T14:21:40.757Z,98835.87
2019-02-24T14:24:36.231Z,98840.38
2019-02-24T14:27:32.738Z,98840.38
2019-02-24T14:30:29.473Z,98841.87
2019-02-24T14:33:35.992Z,98841.05
2019-02-24T14:36:34.045Z,98837.27
2019-02-24T14:39:31.789Z,98846.56
2019-02-24T14:42:27.843Z,98850.69
2019-02-24T14:45:24.930Z,98843.03
2019-02-24T14:48:22.115Z,98836.91
2019-02-24T14:51:18.041Z,98835.33
2019-02-24T14:54:14.884Z,98844.95
2019-02-24T14:57:11.627Z,98835.26
2019-02-24T15:00:08.200Z,98834.92
2019-02-24T15:03:04.741Z,98835.40
2019-02-24T15:06:01.306Z,98834.76
2019-02-24T15:09:02.163Z,98838.20
2019-02-24T15:11:58.186Z,98832.83
2019-02-24T15:14:55.089Z,98829.25
2019-02-24T15:17:50.669Z,98833.23
2019-02-24T15:20:49.396Z,98832.39
2019-02-24T15:23:44.674Z,98832.31
2019-02-24T15:26:41.546Z,98830.63
2019-02-24T15:29:38.440Z,98824.30
2019-02-24T15:32:35.006Z,98826.02
2019-02-24T15:35:31.989Z,98821.39
2019-02-24T15:38:27.652Z,98831.53
2019-02-24T15:41:29.812Z,98831.53
2019-02-24T15:44:20.511Z,98832.84
2019-02-24T15:47:17.080Z,98835.23
2019-02-24T15:50:13.792Z,98841.30
2019-02-24T15:53:12.488Z,98842.29
2019-02-24T15:56:08.077Z,98842.36
2019-02-24T15:59:04.620Z,98838.02
2019-02-24T16:02:02.282Z,98838.73
2019-02-24T16:04:57.804Z,98843.89
2019-02-24T16:07:54.320Z,98840.24
2019-02-24T16:10:50.314Z,98833.95
2019-02-24T16:16:41.013Z,98852.37
2019-02-24T16:19:38.552Z,98849.61
2019-02-24T16:22:34.110Z,98850.87
2019-02-24T16:25:30.235Z,98850.40
2019-02-24T16:28:25.787Z,98851.33
2019-02-24T16:31:22.386Z,98854.77
2019-02-24T16:34:17.020Z,98855.69
2019-02-24T16:37:13.627Z,98851.52
2019-02-24T16:40:10.452Z,98859.02
2019-02-24T16:43:06.051Z,98864.19
2019-02-24T16:46:02.829Z,98851.67
2019-02-24T16:48:58.016Z,98851.95
2019-02-24T16:51:54.795Z,98860.70
2019-02-24T16:54:52.797Z,98859.22
2019-02-24T16:57:48.258Z,98867.83
2019-02-24T17:00:44.776Z,98872.13
2019-02-24T17:03:41.214Z,98873.90
2019-02-24T17:06:40.943Z,98883.25
2019-02-24T17:09:37.733Z,98880.56
2019-02-24T17:12:35.434Z,98882.90
2019-02-24T17:15:30.985Z,98872.31
2019-02-24T17:18:27.514Z,98877.36
2019-02-24T17:21:26.987Z,98871.77
2019-02-24T17:24:22.025Z,98879.53
2019-02-24T17:27:18.068Z,98886.68
2019-02-24T17:30:13.479Z,98892.10
2019-02-24T17:33:10.258Z,98889.98
2019-02-24T17:36:07.624Z,98888.23
2019-02-24T17:39:02.442Z,98889.00
2019-02-24T17:41:58.842Z,98885.98
2019-02-24T17:44:55.382Z,98890.55
2019-02-24T17:47:50.597Z,98892.47
2019-02-24T17:50:47.159Z,98892.84
2019-02-24T17:53:44.931Z,98891.75
2019-02-24T17:56:40.710Z,98896.67
2019-02-24T17:59:40.434Z,98903.09
2019-02-24T18:02:34.042Z,98908.48
2019-02-24T18:05:30.661Z,98907.50
2019-02-24T18:08:28.218Z,98907.77
2019-02-24T18:11:21.828Z,98901.84
2019-02-24T18:14:17.615Z,98905.19
2019-02-24T18:17:14.147Z,98909.59
2019-02-24T18:20:11.985Z,98911.19
2019-02-24T18:23:08.459Z,98911.34
2019-02-24T18:26:05.168Z,98915.22
2019-02-24T18:29:00.627Z,98923.59
2019-02-24T18:31:57.246Z,98928.17
2019-02-24T18:34:53.162Z,98930.75
2019-02-24T18:37:49.238Z,98931.29
2019-02-24T18:40:45.961Z,98928.84
2019-02-24T18:43:42.462Z,98930.64
2019-02-24T18:46:39.248Z,98928.71
2019-02-24T18:49:34.939Z,98929.99
2019-02-24T18:52:33.907Z,98929.31
2019-02-24T18:55:30.469Z,98922.80
2019-02-24T18:58:28.764Z,98926.63
2019-02-24T19:01:23.470Z,98927.16
2019-02-24T19:04:20.610Z,98939.48
2019-02-24T19:07:17.527Z,98936.85
2019-02-24T19:10:13.552Z,98936.85
2019-02-24T19:13:12.077Z,98940.23
2019-02-24T19:16:07.845Z,98942.42
2019-02-24T19:19:05.616Z,98937.17
2019-02-24T19:22:01.305Z,98939.94
2019-02-24T19:24:58.190Z,98939.52
2019-02-24T19:27:59.451Z,98936.82
2019-02-24T19:30:55.130Z,98935.41
2019-02-24T19:33:53.799Z,98930.92
2019-02-24T19:36:48.787Z,98943.76
2019-02-24T19:39:46.732Z,98937.03
2019-02-24T19:42:42.671Z,98934.58
2019-02-24T19:45:40.432Z,98940.11
2019-02-24T19:48:42.053Z,98948.17
2019-02-24T19:51:32.968Z,98944.46
2019-02-24T19:54:30.824Z,98946.38
2019-02-24T19:57:27.147Z,98939.51
2019-02-24T20:00:23.257Z,98941.90
2019-02-24T20:03:20.769Z,98954.30
2019-02-24T20:06:17.444Z,98946.91
2019-02-24T20:09:14.206Z,98946.02
2019-02-24T20:12:10.252Z,98943.30
2019-02-24T20:15:09.535Z,98947.31
2019-02-24T20:18:05.438Z,98953.61
2019-02-24T20:21:08.022Z,98960.38
2019-02-24T20:24:04.351Z,98956.40
2019-02-24T20:27:01.041Z,98966.55
2019-02-24T20:29:56.916Z,98963.94
2019-02-24T20:32:53.283Z,98977.98
2019-02-24T20:35:50.177Z,98974.23
2019-02-24T20:38:45.905Z,98965.77
2019-02-24T20:41:42.736Z,98969.27
2019-02-24T20:44:39.527Z,98973.41
2019-02-24T20:47:36.476Z,98979.52
2019-02-24T20:50:31.607Z,98982.78
2019-02-24T20:53:28.417Z,98976.56
2019-02-24T20:56:23.680Z,98977.08
2019-02-24T20:59:20.353Z,98973.09
2019-02-24T21:02:17.492Z,98971.59
2019-02-24T21:05:15.190Z,98972.36
2019-02-24T21:08:11.734Z,98963.75
2019-02-24T21:11:08.412Z,98959.37
2019-02-24T21:14:06.092Z,98961.87
2019-02-24T21:17:01.789Z,98960.64
2019-02-24T21:19:59.442Z,98964.16
2019-02-24T21:22:55.390Z,98958.42
2019-02-24T21:25:52.751Z,98954.20
2019-02-24T21:28:48.988Z,98956.42
2019-02-24T21:31:45.920Z,98958.45
2019-02-24T21:34:42.385Z,98964.46
2019-02-24T21:37:40.084Z,98967.21
2019-02-24T21:40:35.513Z,98971.46
2019-02-24T21:43:32.067Z,98971.23
2019-02-24T21:46:27.587Z,98967.73
2019-02-24T21:49:24.051Z,98964.86
2019-02-24T21:52:19.536Z,98965.51
2019-02-24T21:55:17.057Z,98969.50
2019-02-24T21:58:12.824Z,98966.01
2019-02-24T22:01:09.340Z,98956.63
2019-02-24T22:04:04.767Z,98957.02
2019-02-24T22:07:01.543Z,98964.27
2019-02-24T22:09:57.133Z,98964.52
2019-02-24T22:12:54.073Z,98964.77
2019-02-24T22:15:50.642Z,98963.41
2019-02-24T22:18:47.263Z,98962.04
2019-02-24T22:21:43.802Z,98966.55
2019-02-24T22:24:40.483Z,98958.55
2019-02-24T22:27:36.094Z,98965.92
2019-02-24T22:30:33.480Z,98955.81
2019-02-24T22:33:29.275Z,98967.06
2019-02-24T22:36:25.352Z,98962.05
2019-02-24T22:39:20.492Z,98961.33
2019-02-24T22:42:17.028Z,98962.33
2019-02-24T22:45:12.554Z,98957.81
2019-02-24T22:48:08.660Z,98954.95
2019-02-24T22:51:05.240Z,98958.06
2019-02-24T22:54:00.755Z,98950.94
2019-02-24T22:56:58.423Z,98949.84
2019-02-24T22:59:53.625Z,98950.81
2019-02-24T23:02:49.935Z,98949.84
2019-02-24T23:05:47.449Z,98946.34
2019-02-24T23:08:44.047Z,98939.84
2019-02-24T23:11:39.517Z,98935.38
2019-02-24T23:14:35.971Z,98939.09
2019-02-24T23:17:32.442Z,98935.00
2019-02-24T23:20:29.186Z,98935.61
2019-02-24T23:23:24.865Z,98930.50
2019-02-24T23:26:22.488Z,98942.85
2019-02-24T23:29:18.085Z,98934.37
2019-02-24T23:32:14.885Z,98923.91
2019-02-24T23:35:10.040Z,98917.80
2019-02-24T23:38:06.600Z,98919.89
2019-02-24T23:41:02.186Z,98926.41
2019-02-24T23:43:59.009Z,98925.13
2019-02-24T23:46:54.968Z,98924.66
2019-02-24T23:49:51.780Z,98920.03
2019-02-24T23:52:47.538Z,98917.66
2019-02-24T23:55:44.153Z,98923.89
2019-02-24T23:58:39.614Z,98930.00
